sensor_id;sensor_type;location;lat;lon;timestamp;pressure;altitude;pressure_sealevel;temperature;humidity
23635;BME280;11994;51.038;16.974;2023-01-19T00:02:13;98784.66;;;3.21;89.55
23635;BME280;11994;51.038;16.974;2023-01-19T00:04:38;98790.00;;;3.21;89.76
23635;BME280;11994;51.038;16.974;2023-01-19T00:07:03;98799.80;;;3.23;89.68
23635;BME280;11994;51.038;16.974;2023-01-19T00:09:31;98804.04;;;3.27;89.81
23635;BME280;11994;51.038;16.974;2023-01-19T00:11:58;98806.88;;;3.33;89.89
23635;BME280;11994;51.038;16.974;2023-01-19T00:14:23;98810.86;;;3.33;89.70
23635;BME280;11994;51.038;16.974;2023-01-19T00:16:49;98809.98;;;3.34;89.82
23635;BME280;11994;51.038;16.974;2023-01-19T00:19:14;98815.77;;;3.38;90.03
23635;BME280;11994;51.038;16.974;2023-01-19T00:21:39;98818.23;;;3.37;89.69
23635;BME280;11994;51.038;16.974;2023-01-19T00:24:05;98823.27;;;3.35;89.67
23635;BME280;11994;51.038;16.974;2023-01-19T00:26:30;98830.45;;;3.29;89.41
23635;BME280;11994;51.038;16.974;2023-01-19T00:28:56;98837.09;;;3.24;89.47
23635;BME280;11994;51.038;16.974;2023-01-19T00:31:21;98839.42;;;3.29;89.74
23635;BME280;11994;51.038;16.974;2023-01-19T00:33:46;98840.52;;;3.37;90.12
23635;BME280;11994;51.038;16.974;2023-01-19T00:36:13;98840.16;;;3.47;90.33
23635;BME280;11994;51.038;16.974;2023-01-19T00:38:40;98842.68;;;3.51;90.31
23635;BME280;11994;51.038;16.974;2023-01-19T00:41:05;98845.16;;;3.57;90.34
23635;BME280;11994;51.038;16.974;2023-01-19T00:43:31;98839.42;;;3.59;89.96
23635;BME280;11994;51.038;16.974;2023-01-19T00:45:56;98841.88;;;3.57;89.91
23635;BME280;11994;51.038;16.974;2023-01-19T00:48:21;98844.44;;;3.59;89.90
23635;BME280;11994;51.038;16.974;2023-01-19T00:50:47;98852.31;;;3.62;89.88
23635;BME280;11994;51.038;16.974;2023-01-19T00:53:13;98856.71;;;3.68;90.14
23635;BME280;11994;51.038;16.974;2023-01-19T00:55:38;98859.09;;;3.70;90.04
23635;BME280;11994;51.038;16.974;2023-01-19T00:58:04;98864.24;;;3.72;90.03
23635;BME280;11994;51.038;16.974;2023-01-19T01:00:30;98867.08;;;3.69;89.65
23635;BME280;11994;51.038;16.974;2023-01-19T01:02:56;98869.53;;;3.67;89.67
23635;BME280;11994;51.038;16.974;2023-01-19T01:05:22;98873.89;;;3.64;89.59
23635;BME280;11994;51.038;16.974;2023-01-19T01:07:47;98876.98;;;3.56;89.52
23635;BME280;11994;51.038;16.974;2023-01-19T01:10:24;98879.92;;;3.55;89.50
23635;BME280;11994;51.038;16.974;2023-01-19T01:12:50;98885.48;;;3.54;89.60
23635;BME280;11994;51.038;16.974;2023-01-19T01:15:16;98886.91;;;3.51;89.49
23635;BME280;11994;51.038;16.974;2023-01-19T01:17:42;98890.17;;;3.52;89.86
23635;BME280;11994;51.038;16.974;2023-01-19T01:20:13;98892.61;;;3.51;89.74
23635;BME280;11994;51.038;16.974;2023-01-19T01:22:41;98888.34;;;3.48;89.75
23635;BME280;11994;51.038;16.974;2023-01-19T01:25:13;98889.05;;;3.48;89.69
23635;BME280;11994;51.038;16.974;2023-01-19T01:27:39;98890.25;;;3.48;89.58
23635;BME280;11994;51.038;16.974;2023-01-19T01:30:06;98896.67;;;3.46;89.59
23635;BME280;11994;51.038;16.974;2023-01-19T01:32:31;98895.41;;;3.39;89.26
23635;BME280;11994;51.038;16.974;2023-01-19T01:34:56;98904.17;;;3.30;89.12
23635;BME280;11994;51.038;16.974;2023-01-19T01:37:22;98910.00;;;3.23;88.92
23635;BME280;11994;51.038;16.974;2023-01-19T01:39:48;98912.17;;;3.16;89.25
23635;BME280;11994;51.038;16.974;2023-01-19T01:42:17;98909.86;;;3.09;88.94
23635;BME280;11994;51.038;16.974;2023-01-19T01:47:37;98909.38;;;2.95;88.72
23635;BME280;11994;51.038;16.974;2023-01-19T01:50:10;98911.03;;;2.89;88.74
23635;BME280;11994;51.038;16.974;2023-01-19T01:53:01;98910.90;;;2.85;88.74
23635;BME280;11994;51.038;16.974;2023-01-19T01:55:30;98916.66;;;2.81;88.72
23635;BME280;11994;51.038;16.974;2023-01-19T01:58:00;98916.38;;;2.76;88.75
23635;BME280;11994;51.038;16.974;2023-01-19T02:00:27;98915.39;;;2.73;88.68
23635;BME280;11994;51.038;16.974;2023-01-19T02:03:13;98919.20;;;2.71;88.44
23635;BME280;11994;51.038;16.974;2023-01-19T02:05:40;98917.70;;;2.68;88.57
23635;BME280;11994;51.038;16.974;2023-01-19T02:08:14;98922.21;;;2.66;88.49
23635;BME280;11994;51.038;16.974;2023-01-19T02:11:01;98920.16;;;2.65;88.47
23635;BME280;11994;51.038;16.974;2023-01-19T02:13:45;98916.02;;;2.64;88.59
23635;BME280;11994;51.038;16.974;2023-01-19T02:16:12;98917.27;;;2.60;88.32
23635;BME280;11994;51.038;16.974;2023-01-19T02:18:38;98916.30;;;2.56;88.12
23635;BME280;11994;51.038;16.974;2023-01-19T02:21:11;98924.59;;;2.56;88.06
23635;BME280;11994;51.038;16.974;2023-01-19T02:23:46;98934.10;;;2.54;87.99
23635;BME280;11994;51.038;16.974;2023-01-19T02:26:22;98935.50;;;2.52;88.11
23635;BME280;11994;51.038;16.974;2023-01-19T02:28:52;98935.87;;;2.50;87.93
23635;BME280;11994;51.038;16.974;2023-01-19T02:31:21;98937.81;;;2.47;87.89
23635;BME280;11994;51.038;16.974;2023-01-19T02:33:48;98939.90;;;2.44;87.72
23635;BME280;11994;51.038;16.974;2023-01-19T02:36:15;98939.21;;;2.44;87.65
23635;BME280;11994;51.038;16.974;2023-01-19T02:38:45;98935.44;;;2.43;87.66
23635;BME280;11994;51.038;16.974;2023-01-19T02:41:15;98939.91;;;2.44;87.58
23635;BME280;11994;51.038;16.974;2023-01-19T02:43:42;98936.81;;;2.43;87.58
23635;BME280;11994;51.038;16.974;2023-01-19T02:46:09;98940.77;;;2.44;87.40
23635;BME280;11994;51.038;16.974;2023-01-19T02:48:35;98936.83;;;2.41;87.62
23635;BME280;11994;51.038;16.974;2023-01-19T02:51:02;98934.42;;;2.42;87.47
23635;BME280;11994;51.038;16.974;2023-01-19T02:54:16;98932.85;;;2.43;87.34
23635;BME280;11994;51.038;16.974;2023-01-19T02:57:03;98934.75;;;2.42;87.32
23635;BME280;11994;51.038;16.974;2023-01-19T03:02:34;98931.70;;;2.39;87.42
23635;BME280;11994;51.038;16.974;2023-01-19T03:11:02;98933.11;;;2.36;87.38
23635;BME280;11994;51.038;16.974;2023-01-19T03:13:44;98936.02;;;2.38;87.62
23635;BME280;11994;51.038;16.974;2023-01-19T03:16:16;98933.60;;;2.40;87.59
23635;BME280;11994;51.038;16.974;2023-01-19T03:18:48;98937.17;;;2.41;87.61
23635;BME280;11994;51.038;16.974;2023-01-19T03:21:17;98935.78;;;2.43;87.65
23635;BME280;11994;51.038;16.974;2023-01-19T03:23:44;98938.55;;;2.42;87.68
23635;BME280;11994;51.038;16.974;2023-01-19T03:26:14;98941.84;;;2.41;87.56
23635;BME280;11994;51.038;16.974;2023-01-19T03:28:43;98937.69;;;2.42;87.57
23635;BME280;11994;51.038;16.974;2023-01-19T03:31:18;98938.71;;;2.42;87.45
23635;BME280;11994;51.038;16.974;2023-01-19T03:33:59;98943.16;;;2.45;87.89
23635;BME280;11994;51.038;16.974;2023-01-19T03:36:32;98949.19;;;2.47;87.53
23635;BME280;11994;51.038;16.974;2023-01-19T03:39:01;98948.87;;;2.45;87.53
23635;BME280;11994;51.038;16.974;2023-01-19T03:41:29;98950.24;;;2.45;87.70
23635;BME280;11994;51.038;16.974;2023-01-19T03:43:55;98948.36;;;2.43;87.73
23635;BME280;11994;51.038;16.974;2023-01-19T03:46:22;98947.38;;;2.40;87.30
23635;BME280;11994;51.038;16.974;2023-01-19T03:48:49;98947.74;;;2.38;87.43
23635;BME280;11994;51.038;16.974;2023-01-19T03:51:15;98940.34;;;2.37;87.50
23635;BME280;11994;51.038;16.974;2023-01-19T03:53:41;98932.08;;;2.36;87.58
23635;BME280;11994;51.038;16.974;2023-01-19T03:56:17;98935.52;;;2.36;87.68
23635;BME280;11994;51.038;16.974;2023-01-19T03:58:44;98938.30;;;2.34;87.66
23635;BME280;11994;51.038;16.974;2023-01-19T04:01:09;98941.45;;;2.31;87.67
23635;BME280;11994;51.038;16.974;2023-01-19T04:03:34;98940.77;;;2.30;87.76
23635;BME280;11994;51.038;16.974;2023-01-19T04:06:00;98940.25;;;2.30;87.99
23635;BME280;11994;51.038;16.974;2023-01-19T04:08:25;98946.27;;;2.31;87.88
23635;BME280;11994;51.038;16.974;2023-01-19T04:10:50;98950.73;;;2.32;88.00
23635;BME280;11994;51.038;16.974;2023-01-19T04:13:16;98955.38;;;2.35;88.20
23635;BME280;11994;51.038;16.974;2023-01-19T04:15:41;98958.45;;;2.37;88.17
23635;BME280;11994;51.038;16.974;2023-01-19T04:18:07;98961.54;;;2.39;88.34
23635;BME280;11994;51.038;16.974;2023-01-19T04:20:32;98965.68;;;2.38;88.30
23635;BME280;11994;51.038;16.974;2023-01-19T04:22:58;98967.42;;;2.36;88.50
23635;BME280;11994;51.038;16.974;2023-01-19T04:25:25;98971.42;;;2.33;88.49
23635;BME280;11994;51.038;16.974;2023-01-19T04:27:52;98970.91;;;2.32;88.71
23635;BME280;11994;51.038;16.974;2023-01-19T04:30:18;98965.60;;;2.31;88.77
23635;BME280;11994;51.038;16.974;2023-01-19T04:32:43;98970.77;;;2.31;88.99
23635;BME280;11994;51.038;16.974;2023-01-19T04:35:09;98973.02;;;2.30;89.02
23635;BME280;11994;51.038;16.974;2023-01-19T04:37:34;98978.02;;;2.30;89.28
23635;BME280;11994;51.038;16.974;2023-01-19T04:39:59;98985.97;;;2.27;89.36
23635;BME280;11994;51.038;16.974;2023-01-19T04:42:25;98994.60;;;2.27;89.56
23635;BME280;11994;51.038;16.974;2023-01-19T04:44:51;98998.38;;;2.27;89.48
23635;BME280;11994;51.038;16.974;2023-01-19T04:47:18;99003.04;;;2.29;89.62
23635;BME280;11994;51.038;16.974;2023-01-19T04:49:43;99013.85;;;2.33;89.65
23635;BME280;11994;51.038;16.974;2023-01-19T04:52:09;99022.59;;;2.39;89.85
23635;BME280;11994;51.038;16.974;2023-01-19T04:54:34;99026.67;;;2.44;89.90
23635;BME280;11994;51.038;16.974;2023-01-19T04:57:00;99038.74;;;2.44;89.77
23635;BME280;11994;51.038;16.974;2023-01-19T04:59:25;99049.25;;;2.46;89.76
23635;BME280;11994;51.038;16.974;2023-01-19T05:01:50;99050.58;;;2.50;89.72
23635;BME280;11994;51.038;16.974;2023-01-19T05:04:16;99057.31;;;2.50;89.62
23635;BME280;11994;51.038;16.974;2023-01-19T05:06:41;99060.94;;;2.51;89.58
23635;BME280;11994;51.038;16.974;2023-01-19T05:09:06;99066.44;;;2.53;89.64
23635;BME280;11994;51.038;16.974;2023-01-19T05:11:34;99067.65;;;2.53;89.58
23635;BME280;11994;51.038;16.974;2023-01-19T05:13:59;99076.28;;;2.52;89.64
23635;BME280;11994;51.038;16.974;2023-01-19T05:16:25;99078.52;;;2.52;89.72
23635;BME280;11994;51.038;16.974;2023-01-19T05:18:50;99074.94;;;2.48;89.66
23635;BME280;11994;51.038;16.974;2023-01-19T05:21:16;99064.61;;;2.44;89.57
23635;BME280;11994;51.038;16.974;2023-01-19T05:23:42;99055.99;;;2.44;89.84
23635;BME280;11994;51.038;16.974;2023-01-19T05:26:07;99050.46;;;2.44;89.71
23635;BME280;11994;51.038;16.974;2023-01-19T05:28:33;99053.06;;;2.45;89.91
23635;BME280;11994;51.038;16.974;2023-01-19T05:30:58;99054.27;;;2.45;89.99
23635;BME280;11994;51.038;16.974;2023-01-19T05:33:24;99055.66;;;2.43;89.79
23635;BME280;11994;51.038;16.974;2023-01-19T05:35:51;99059.34;;;2.39;89.79
23635;BME280;11994;51.038;16.974;2023-01-19T05:38:18;99055.74;;;2.35;89.97
23635;BME280;11994;51.038;16.974;2023-01-19T05:40:43;99058.17;;;2.33;89.91
23635;BME280;11994;51.038;16.974;2023-01-19T05:43:09;99061.45;;;2.34;90.00
23635;BME280;11994;51.038;16.974;2023-01-19T05:45:34;99062.14;;;2.34;90.09
23635;BME280;11994;51.038;16.974;2023-01-19T05:48:00;99060.22;;;2.35;90.15
23635;BME280;11994;51.038;16.974;2023-01-19T05:50:25;99068.66;;;2.37;90.25
23635;BME280;11994;51.038;16.974;2023-01-19T05:52:50;99065.20;;;2.38;90.22
23635;BME280;11994;51.038;16.974;2023-01-19T05:55:18;99059.33;;;2.38;90.39
23635;BME280;11994;51.038;16.974;2023-01-19T05:57:44;99064.70;;;2.35;90.12
23635;BME280;11994;51.038;16.974;2023-01-19T06:00:09;99074.20;;;2.34;90.25
23635;BME280;11994;51.038;16.974;2023-01-19T06:02:35;99086.27;;;2.34;90.26
23635;BME280;11994;51.038;16.974;2023-01-19T06:05:00;99098.34;;;2.34;90.38
23635;BME280;11994;51.038;16.974;2023-01-19T06:07:26;99104.55;;;2.35;90.35
23635;BME280;11994;51.038;16.974;2023-01-19T06:09:51;99114.73;;;2.36;90.44
23635;BME280;11994;51.038;16.974;2023-01-19T06:12:17;99111.61;;;2.36;90.48
23635;BME280;11994;51.038;16.974;2023-01-19T06:14:42;99111.45;;;2.36;90.62
23635;BME280;11994;51.038;16.974;2023-01-19T06:17:08;99113.36;;;2.34;90.58
23635;BME280;11994;51.038;16.974;2023-01-19T06:19:33;99113.88;;;2.33;90.47
23635;BME280;11994;51.038;16.974;2023-01-19T06:21:59;99114.06;;;2.33;90.27
23635;BME280;11994;51.038;16.974;2023-01-19T06:24:25;99119.25;;;2.31;90.42
23635;BME280;11994;51.038;16.974;2023-01-19T06:26:50;99116.50;;;2.31;90.45
23635;BME280;11994;51.038;16.974;2023-01-19T06:29:16;99114.60;;;2.30;90.27
23635;BME280;11994;51.038;16.974;2023-01-19T06:31:42;99124.10;;;2.28;90.20
23635;BME280;11994;51.038;16.974;2023-01-19T06:34:08;99131.36;;;2.26;89.95
23635;BME280;11994;51.038;16.974;2023-01-19T06:36:33;99133.11;;;2.23;90.00
23635;BME280;11994;51.038;16.974;2023-01-19T06:38:59;99137.58;;;2.24;89.96
23635;BME280;11994;51.038;16.974;2023-01-19T06:41:27;99140.85;;;2.25;89.92
23635;BME280;11994;51.038;16.974;2023-01-19T06:43:53;99145.34;;;2.25;89.77
23635;BME280;11994;51.038;16.974;2023-01-19T06:46:19;99149.30;;;2.26;89.95
23635;BME280;11994;51.038;16.974;2023-01-19T06:48:44;99149.83;;;2.24;89.81
23635;BME280;11994;51.038;16.974;2023-01-19T06:51:09;99150.88;;;2.23;89.85
23635;BME280;11994;51.038;16.974;2023-01-19T06:53:35;99151.91;;;2.24;89.67
23635;BME280;11994;51.038;16.974;2023-01-19T06:56:01;99154.83;;;2.24;89.46
23635;BME280;11994;51.038;16.974;2023-01-19T06:58:27;99159.16;;;2.22;89.61
23635;BME280;11994;51.038;16.974;2023-01-19T07:00:53;99160.38;;;2.21;89.54
23635;BME280;11994;51.038;16.974;2023-01-19T07:03:21;99161.75;;;2.21;89.56
23635;BME280;11994;51.038;16.974;2023-01-19T07:05:50;99159.02;;;2.19;89.62
23635;BME280;11994;51.038;16.974;2023-01-19T07:08:15;99160.55;;;2.18;89.29
23635;BME280;11994;51.038;16.974;2023-01-19T07:10:41;99160.20;;;2.18;89.13
23635;BME280;11994;51.038;16.974;2023-01-19T07:13:06;99158.49;;;2.19;89.09
23635;BME280;11994;51.038;16.974;2023-01-19T07:15:32;99156.08;;;2.19;88.86
23635;BME280;11994;51.038;16.974;2023-01-19T07:17:58;99158.66;;;2.19;88.95
23635;BME280;11994;51.038;16.974;2023-01-19T07:20:23;99156.08;;;2.19;88.82
23635;BME280;11994;51.038;16.974;2023-01-19T07:22:54;99161.27;;;2.17;88.68
23635;BME280;11994;51.038;16.974;2023-01-19T07:25:20;99158.33;;;2.17;88.88
23635;BME280;11994;51.038;16.974;2023-01-19T07:27:46;99162.29;;;2.18;88.47
23635;BME280;11994;51.038;16.974;2023-01-19T07:30:11;99163.69;;;2.15;88.29
23635;BME280;11994;51.038;16.974;2023-01-19T07:32:37;99169.23;;;2.12;88.09
23635;BME280;11994;51.038;16.974;2023-01-19T07:35:03;99178.02;;;2.10;88.09
23635;BME280;11994;51.038;16.974;2023-01-19T07:37:29;99172.73;;;2.06;87.80
23635;BME280;11994;51.038;16.974;2023-01-19T07:39:54;99173.09;;;2.01;87.92
23635;BME280;11994;51.038;16.974;2023-01-19T07:42:19;99168.27;;;2.00;87.82
23635;BME280;11994;51.038;16.974;2023-01-19T07:44:46;99171.02;;;2.00;87.74
23635;BME280;11994;51.038;16.974;2023-01-19T07:47:11;99168.64;;;1.97;87.49
23635;BME280;11994;51.038;16.974;2023-01-19T07:49:37;99158.16;;;1.92;87.23
23635;BME280;11994;51.038;16.974;2023-01-19T07:52:03;99161.63;;;1.87;87.33
23635;BME280;11994;51.038;16.974;2023-01-19T07:54:28;99160.45;;;1.82;87.11
23635;BME280;11994;51.038;16.974;2023-01-19T07:56:54;99161.34;;;1.77;86.96
23635;BME280;11994;51.038;16.974;2023-01-19T07:59:20;99169.48;;;1.71;87.11
23635;BME280;11994;51.038;16.974;2023-01-19T08:01:45;99170.86;;;1.68;87.03
23635;BME280;11994;51.038;16.974;2023-01-19T08:04:11;99176.56;;;1.66;87.04
23635;BME280;11994;51.038;16.974;2023-01-19T08:06:38;99177.45;;;1.63;86.98
23635;BME280;11994;51.038;16.974;2023-01-19T08:09:04;99176.27;;;1.59;87.02
23635;BME280;11994;51.038;16.974;2023-01-19T08:11:31;99180.41;;;1.55;87.02
23635;BME280;11994;51.038;16.974;2023-01-19T08:13:57;99180.94;;;1.51;86.67
23635;BME280;11994;51.038;16.974;2023-01-19T08:16:22;99190.44;;;1.48;86.50
23635;BME280;11994;51.038;16.974;2023-01-19T08:18:48;99198.89;;;1.45;86.46
23635;BME280;11994;51.038;16.974;2023-01-19T08:21:14;99199.74;;;1.44;86.47
23635;BME280;11994;51.038;16.974;2023-01-19T08:23:39;99205.09;;;1.45;86.33
23635;BME280;11994;51.038;16.974;2023-01-19T08:26:34;99205.94;;;1.46;86.34
23635;BME280;11994;51.038;16.974;2023-01-19T08:29:02;99208.34;;;1.48;86.29
23635;BME280;11994;51.038;16.974;2023-01-19T08:31:28;99208.52;;;1.48;86.33
23635;BME280;11994;51.038;16.974;2023-01-19T08:33:53;99209.90;;;1.48;86.29
23635;BME280;11994;51.038;16.974;2023-01-19T08:36:20;99213.17;;;1.47;86.20
23635;BME280;11994;51.038;16.974;2023-01-19T08:38:46;99220.06;;;1.45;86.08
23635;BME280;11994;51.038;16.974;2023-01-19T08:41:12;99219.55;;;1.43;86.12
23635;BME280;11994;51.038;16.974;2023-01-19T08:43:40;99220.59;;;1.44;86.13
23635;BME280;11994;51.038;16.974;2023-01-19T08:46:06;99219.89;;;1.46;85.99
23635;BME280;11994;51.038;16.974;2023-01-19T08:48:31;99220.23;;;1.46;85.91
23635;BME280;11994;51.038;16.974;2023-01-19T08:50:57;99219.53;;;1.49;86.02
23635;BME280;11994;51.038;16.974;2023-01-19T08:53:23;99215.38;;;1.52;86.07
23635;BME280;11994;51.038;16.974;2023-01-19T08:55:52;99219.70;;;1.52;85.85
23635;BME280;11994;51.038;16.974;2023-01-19T08:58:18;99223.31;;;1.54;85.69
23635;BME280;11994;51.038;16.974;2023-01-19T09:00:44;99229.52;;;1.54;85.71
23635;BME280;11994;51.038;16.974;2023-01-19T09:03:10;99232.61;;;1.54;85.46
23635;BME280;11994;51.038;16.974;2023-01-19T09:05:37;99238.80;;;1.56;85.27
23635;BME280;11994;51.038;16.974;2023-01-19T09:08:08;99240.34;;;1.62;85.46
23635;BME280;11994;51.038;16.974;2023-01-19T09:10:35;99240.33;;;1.65;85.20
23635;BME280;11994;51.038;16.974;2023-01-19T09:13:08;99245.33;;;1.65;85.02
23635;BME280;11994;51.038;16.974;2023-01-19T09:15:36;99251.00;;;1.65;84.92
23635;BME280;11994;51.038;16.974;2023-01-19T09:18:03;99255.66;;;1.64;84.91
23635;BME280;11994;51.038;16.974;2023-01-19T09:20:30;99260.48;;;1.64;84.62
23635;BME280;11994;51.038;16.974;2023-01-19T09:22:57;99260.48;;;1.63;84.52
23635;BME280;11994;51.038;16.974;2023-01-19T09:25:23;99261.36;;;1.60;84.56
23635;BME280;11994;51.038;16.974;2023-01-19T09:27:48;99261.52;;;1.61;84.39
23635;BME280;11994;51.038;16.974;2023-01-19T09:30:14;99264.10;;;1.64;84.21
23635;BME280;11994;51.038;16.974;2023-01-19T09:32:41;99259.62;;;1.65;84.18
23635;BME280;11994;51.038;16.974;2023-01-19T09:35:07;99261.84;;;1.70;84.28
23635;BME280;11994;51.038;16.974;2023-01-19T09:37:32;99261.31;;;1.73;84.39
23635;BME280;11994;51.038;16.974;2023-01-19T09:39:58;99260.60;;;1.75;84.41
23635;BME280;11994;51.038;16.974;2023-01-19T09:42:32;99259.89;;;1.81;84.27
23635;BME280;11994;51.038;16.974;2023-01-19T09:45:04;99259.19;;;1.84;84.27
23635;BME280;11994;51.038;16.974;2023-01-19T09:47:31;99254.54;;;1.84;84.04
23635;BME280;11994;51.038;16.974;2023-01-19T09:50:03;99251.60;;;1.87;83.78
23635;BME280;11994;51.038;16.974;2023-01-19T09:52:34;99253.15;;;1.89;83.42
23635;BME280;11994;51.038;16.974;2023-01-19T09:55:01;99249.52;;;1.91;83.29
23635;BME280;11994;51.038;16.974;2023-01-19T09:57:26;99246.94;;;1.91;83.07
23635;BME280;11994;51.038;16.974;2023-01-19T09:59:52;99243.48;;;1.90;83.19
23635;BME280;11994;51.038;16.974;2023-01-19T10:03:37;99239.33;;;1.93;83.39
23635;BME280;11994;51.038;16.974;2023-01-19T10:06:04;99236.05;;;1.96;83.03
23635;BME280;11994;51.038;16.974;2023-01-19T10:09:49;99230.34;;;1.99;83.15
23635;BME280;11994;51.038;16.974;2023-01-19T10:11:55;99229.98;;;2.01;83.14
23635;BME280;11994;51.038;16.974;2023-01-19T10:14:44;99228.05;;;2.08;83.11
23635;BME280;11994;51.038;16.974;2023-01-19T10:20:27;99227.48;;;2.18;82.62
23635;BME280;11994;51.038;16.974;2023-01-19T10:22:55;99227.96;;;2.20;82.58
23635;BME280;11994;51.038;16.974;2023-01-19T10:25:23;99228.14;;;2.21;82.24
23635;BME280;11994;51.038;16.974;2023-01-19T10:27:49;99231.58;;;2.23;82.06
23635;BME280;11994;51.038;16.974;2023-01-19T10:30:22;99232.77;;;2.26;81.79
23635;BME280;11994;51.038;16.974;2023-01-19T10:32:50;99231.55;;;2.29;82.08
23635;BME280;11994;51.038;16.974;2023-01-19T10:35:18;99232.20;;;2.32;81.44
23635;BME280;11994;51.038;16.974;2023-01-19T10:37:49;99241.70;;;2.33;81.55
23635;BME280;11994;51.038;16.974;2023-01-19T10:40:48;99239.44;;;2.35;81.28
23635;BME280;11994;51.038;16.974;2023-01-19T10:43:34;99236.67;;;2.37;81.19
23635;BME280;11994;51.038;16.974;2023-01-19T10:46:15;99238.02;;;2.41;81.16
23635;BME280;11994;51.038;16.974;2023-01-19T10:48:42;99238.50;;;2.44;81.07
23635;BME280;11994;51.038;16.974;2023-01-19T10:51:09;99236.60;;;2.47;81.02
23635;BME280;11994;51.038;16.974;2023-01-19T10:53:36;99237.09;;;2.49;80.99
23635;BME280;11994;51.038;16.974;2023-01-19T10:56:14;99238.63;;;2.50;80.85
23635;BME280;11994;51.038;16.974;2023-01-19T10:58:40;99235.02;;;2.49;80.76
23635;BME280;11994;51.038;16.974;2023-01-19T11:01:16;99238.48;;;2.49;80.61
23635;BME280;11994;51.038;16.974;2023-01-19T11:03:42;99233.64;;;2.49;80.47
23635;BME280;11994;51.038;16.974;2023-01-19T11:08:47;99235.88;;;2.49;80.24
23635;BME280;11994;51.038;16.974;2023-01-19T11:11:17;99236.23;;;2.51;80.30
23635;BME280;11994;51.038;16.974;2023-01-19T11:13:43;99237.77;;;2.52;80.32
23635;BME280;11994;51.038;16.974;2023-01-19T11:16:21;99236.36;;;2.55;80.01
23635;BME280;11994;51.038;16.974;2023-01-19T11:18:54;99235.31;;;2.58;79.88
23635;BME280;11994;51.038;16.974;2023-01-19T11:21:23;99235.61;;;2.63;80.03
23635;BME280;11994;51.038;16.974;2023-01-19T11:23:51;99230.05;;;2.67;79.98
23635;BME280;11994;51.038;16.974;2023-01-19T11:26:24;99224.84;;;2.71;79.90
23635;BME280;11994;51.038;16.974;2023-01-19T11:28:51;99225.50;;;2.75;79.59
23635;BME280;11994;51.038;16.974;2023-01-19T11:31:38;99219.79;;;2.78;79.45
23635;BME280;11994;51.038;16.974;2023-01-19T11:34:21;99221.27;;;2.85;79.49
23635;BME280;11994;51.038;16.974;2023-01-19T11:39:47;99222.48;;;2.86;79.04
23635;BME280;11994;51.038;16.974;2023-01-19T11:42:13;99221.76;;;2.89;78.64
23635;BME280;11994;51.038;16.974;2023-01-19T11:47:29;99216.04;;;2.91;78.32
23635;BME280;11994;51.038;16.974;2023-01-19T11:52:36;99209.59;;;2.96;77.86
23635;BME280;11994;51.038;16.974;2023-01-19T11:55:24;99212.23;;;2.93;77.47
23635;BME280;11994;51.038;16.974;2023-01-19T11:57:55;99205.11;;;2.95;77.25
23635;BME280;11994;51.038;16.974;2023-01-19T12:00:24;99207.20;;;2.96;77.17
23635;BME280;11994;51.038;16.974;2023-01-19T12:02:57;99211.15;;;2.96;77.13
23635;BME280;11994;51.038;16.974;2023-01-19T12:05:29;99204.58;;;2.97;77.15
23635;BME280;11994;51.038;16.974;2023-01-19T12:07:56;99201.63;;;2.99;76.94
23635;BME280;11994;51.038;16.974;2023-01-19T12:10:34;99199.20;;;3.02;76.89
23635;BME280;11994;51.038;16.974;2023-01-19T12:13:02;99191.92;;;3.04;76.86
23635;BME280;11994;51.038;16.974;2023-01-19T12:15:35;99188.27;;;3.06;76.73
23635;BME280;11994;51.038;16.974;2023-01-19T12:18:02;99183.37;;;3.12;76.83
23635;BME280;11994;51.038;16.974;2023-01-19T12:20:39;99176.24;;;3.15;76.90
23635;BME280;11994;51.038;16.974;2023-01-19T12:28:36;99172.77;;;3.17;75.86
23635;BME280;11994;51.038;16.974;2023-01-19T12:31:03;99173.68;;;3.14;75.27
23635;BME280;11994;51.038;16.974;2023-01-19T12:33:37;99175.23;;;3.12;75.43
23635;BME280;11994;51.038;16.974;2023-01-19T12:36:36;99175.27;;;3.10;75.31
23635;BME280;11994;51.038;16.974;2023-01-19T12:39:12;99176.83;;;3.10;75.36
23635;BME280;11994;51.038;16.974;2023-01-19T12:41:41;99179.24;;;3.10;74.91
23635;BME280;11994;51.038;16.974;2023-01-19T12:47:01;99183.03;;;3.11;75.10
23635;BME280;11994;51.038;16.974;2023-01-19T12:49:43;99185.24;;;3.14;75.20
23635;BME280;11994;51.038;16.974;2023-01-19T12:52:20;99182.11;;;3.16;75.15
23635;BME280;11994;51.038;16.974;2023-01-19T12:57:47;99182.41;;;3.21;74.90
23635;BME280;11994;51.038;16.974;2023-01-19T13:19:12;99189.90;;;3.30;73.09
23635;BME280;11994;51.038;16.974;2023-01-19T13:21:40;99190.09;;;3.29;73.12
23635;BME280;11994;51.038;16.974;2023-01-19T13:24:19;99196.50;;;3.28;72.51
23635;BME280;11994;51.038;16.974;2023-01-19T13:29:33;99192.34;;;3.30;72.45
23635;BME280;11994;51.038;16.974;2023-01-19T13:32:01;99194.05;;;3.30;72.38
23635;BME280;11994;51.038;16.974;2023-01-19T13:34:31;99199.23;;;3.29;72.23
23635;BME280;11994;51.038;16.974;2023-01-19T13:37:00;99203.23;;;3.28;72.15
23635;BME280;11994;51.038;16.974;2023-01-19T13:39:34;99207.55;;;3.28;72.12
23635;BME280;11994;51.038;16.974;2023-01-19T13:42:04;99205.82;;;3.28;72.10
23635;BME280;11994;51.038;16.974;2023-01-19T13:44:36;99207.73;;;3.28;71.81
23635;BME280;11994;51.038;16.974;2023-01-19T13:47:07;99207.05;;;3.27;71.70
23635;BME280;11994;51.038;16.974;2023-01-19T13:49:39;99207.73;;;3.26;71.93
23635;BME280;11994;51.038;16.974;2023-01-19T13:52:24;99209.65;;;3.26;71.68
23635;BME280;11994;51.038;16.974;2023-01-19T13:54:52;99212.39;;;3.28;71.89
23635;BME280;11994;51.038;16.974;2023-01-19T13:57:28;99218.41;;;3.30;71.91
23635;BME280;11994;51.038;16.974;2023-01-19T14:02:53;99221.33;;;3.32;71.65
23635;BME280;11994;51.038;16.974;2023-01-19T14:05:29;99222.20;;;3.31;71.59
23635;BME280;11994;51.038;16.974;2023-01-19T14:08:02;99221.02;;;3.29;71.41
23635;BME280;11994;51.038;16.974;2023-01-19T14:10:28;99221.01;;;3.30;71.61
23635;BME280;11994;51.038;16.974;2023-01-19T14:13:04;99223.08;;;3.30;71.71